메인 페이지
METAR-TAF:

METAR-TAF

공항 :

Gulfport, 미시시피, 미국

위도: 30-24-43N, 경도: 089-04-51W, 고도: 8m

현재 날씨관측

예보는 40분 전, 22:53시(UTC)에 발표되었습니다.
남남동10kt
온도 29°C
습도 62%
기압 1010 hPa
시정: 16.1km
고도 3000ft 상공 구름 조금

METAR: KGPT 262253Z 16010KT 10SM FEW030 29/21 A2982 RMK AO2 LTG DSNT N AND NW SLP099 T02890211

시각: 18:33 (23:33 UTC)

예보

예보는 6 시간 8분 전, 17:25시(UTC)에 발표되었습니다.
예보 대상 시간: 26일 18시부터 27일 18시까지 (UTC)
여러 방향의 바람 4kt
시정: 10km
고도 2500ft 상공 구름 보통, 적란운.
고도 9000ft 상공 구름 많음
시계 내 뇌우
26일 2000시부터 (UTC)
남동7kt
시정: 10km
고도 3000ft 상공 구름 보통
고도 9000ft 상공 구름 많음
일시적
26일 20시부터 26일 24시까지 (UTC)
시정: 6.4km
고도 3000ft 상공 구름 많음, 적란운.
뇌우, 비
27일 0000시부터 (UTC)
동남동5kt
시정: 10km
고도 3000ft 상공 구름 보통, 적란운.
고도 10000ft 상공 구름 많음
시계 내 뇌우
27일 0200시부터 (UTC)
동남동6kt
시정: 10km
고도 2000ft 상공 구름 보통
고도 10000ft 상공 구름 많음
27일 1200시부터 (UTC)
북동9kt
시정: 10km
고도 3500ft 상공 구름 보통
고도 9000ft 상공 구름 많음
시계 내 소나기

TAF: KGPT 261725Z 2618/2718 VRB04KT P6SM VCTS SCT025CB BKN090 FM262000 14007KT P6SM SCT030 BKN090 TEMPO 2620/2624 4SM TSRA BKN030CB FM270000 11005KT P6SM VCTS SCT030CB BKN100 FM270200 11006KT P6SM SCT020 BKN100 FM271200 05009KT P6SM VCSH SCT035 BKN090

4,000개 이상의 공항 관측 자료 및 예보 (METAR 및 TAF 보고).

지도상에서 검색 가능한 기상관측소가 노란 점과 빨간 점으로 표시되어 있습니다.

기상관측소 명을 보려면 표시 위로 마우스를 이동하세요.

날씨 관측과 예보를 보려면 클릭하세요.

지도 변경 : 확대하려면 엑스 표시가 있는 녹색 버튼, 축소하려면 빼기 표시가 있는 녹색 버튼, 다음 페이지의 지도를 보려면 녹색 화살표를 클릭하세요.


METAR-TAF: